WetterOnline ( https://www.wetteronline.ch )

Wetter aktuell Sonthofen/Oberallgäu

Aktuelles Wetter: Oberstdorf (812m)

6-stündlich | Neueste Meldungen
Ortszeit Temperatur Wetter
Mo, 13.07. 14:00 21.3° C fast wolkenlos
Mo, 13.07. 8:00 11.4° C leicht bewölkt
Mo, 13.07. 2:00 8.1° C wolkenlos
So, 12.07. 20:00 18.5° C wolkenlos
So, 12.07. 14:00 20.3° C wolkenlos
So, 12.07. 8:00 9.9° C wolkenlos
So, 12.07. 2:00 9.4° C leicht bewölkt
Sa, 11.07. 20:00 13.5° C bedeckt
Ortszeit Temperatur Wetter
Mo, 13.07. 19:30 20.8° C wolkig
Mo, 13.07. 19:20 20.8° C wolkig
Mo, 13.07. 19:10 20.7° C wolkig
Mo, 13.07. 19:00 21.6° C leicht bewölkt
Mo, 13.07. 18:50 21.6° C wolkig
Mo, 13.07. 18:40 21.5° C wolkig
Mo, 13.07. 18:30 21.3° C wolkig
Mo, 13.07. 18:00 21.3° C wolkig
Ortszeit Relative Feuchte Sichtweite
Mo, 13.07. 14:00 51% >70 km
Mo, 13.07. 8:00 84% 50 km
Mo, 13.07. 2:00 99% 29 km
So, 12.07. 20:00 58% >70 km
So, 12.07. 14:00 52% 55 km
So, 12.07. 8:00 87% 55 km
So, 12.07. 2:00 97% 17 km
Sa, 11.07. 20:00 89% 55 km
Ortszeit Relative Feuchte Sichtweite
Mo, 13.07. 19:30 48% 55 km
Mo, 13.07. 19:20 48% -
Mo, 13.07. 19:10 48% -
Mo, 13.07. 19:00 47% 65 km
Mo, 13.07. 18:50 47% -
Mo, 13.07. 18:40 47% -
Mo, 13.07. 18:30 47% 55 km
Mo, 13.07. 18:00 48% >70 km
Ortszeit Niederschlagsmenge Niederschlagsart
Mo, 13.07. 14:00 0.0 l/m2 in 6 Std. -
Mo, 13.07. 8:00 0.0 l/m2 in 12 Std. -
Mo, 13.07. 2:00 0.0 l/m2 in 6 Std. -
So, 12.07. 20:00 0.0 l/m2 in 3 Std. -
So, 12.07. 14:00 0.0 l/m2 in 6 Std. -
So, 12.07. 8:00 0.1 l/m2 in 12 Std. -
So, 12.07. 2:00 0.0 l/m2 in 6 Std. -
Sa, 11.07. 20:00 10 l/m2 in 12 Std. Regen
Ortszeit Niederschlagsmenge Niederschlagsart
Mo, 13.07. 19:30 0.0 l/m2 in 1 Std. -
Mo, 13.07. 19:20 keine Meldung -
Mo, 13.07. 19:10 keine Meldung -
Mo, 13.07. 19:00 0.0 l/m2 in 1 Std. -
Mo, 13.07. 18:50 keine Meldung -
Mo, 13.07. 18:40 keine Meldung -
Mo, 13.07. 18:30 0.0 l/m2 in 1 Std. -
Mo, 13.07. 18:00 0.1 l/m2 in 1 Std. Regen
Ortszeit Stärke Spitze Richtung
km/h Bft. km/h Grad Sektor
Mo, 13.07. 14:00 17 3 26 350° N
Mo, 13.07. 8:00 0 0 11 - -
Mo, 13.07. 2:00 6 1 15 180° S
So, 12.07. 20:00 13 3 33 300° NW
So, 12.07. 14:00 19 3 31 340° N
So, 12.07. 8:00 0 0 11 - -
So, 12.07. 2:00 7 2 14 160° S
Sa, 11.07. 20:00 4 1 25 30° NO
Ortszeit Stärke Spitze Richtung
km/h Bft. km/h Grad Sektor
Mo, 13.07. 19:30 17 3 26 360° N
Mo, 13.07. 19:20 17 3 - 360° N
Mo, 13.07. 19:10 17 3 - 360° N
Mo, 13.07. 19:00 14 3 25 350° N
Mo, 13.07. 18:50 14 3 - 350° N
Mo, 13.07. 18:40 13 3 - 350° N
Mo, 13.07. 18:30 17 3 26 360° N
Mo, 13.07. 18:00 17 3 30 360° N
Ortszeit Untergrenze Bedeckung Gattung
total tief tief mittel hoch
Mo, 13.07. 14:00 9000 m 2/8 0/8 - - -
Mo, 13.07. 8:00 9000 m 7/8 0/8 - - -
Mo, 13.07. 2:00 - 0/8 0/8 - - -
So, 12.07. 20:00 - 0/8 0/8 - - -
So, 12.07. 14:00 - 0/8 0/8 - - -
So, 12.07. 8:00 - 0/8 0/8 - - -
So, 12.07. 2:00 90 m 3/8 3/8 - - -
Sa, 11.07. 20:00 1380 m 8/8 8/8 - - -
Ortszeit Bedeckungsgrad in Achtel und Wolkenuntergrenze
Mo, 13.07. 19:30 2(1800m) 7(6600m) 7(7500m)
Mo, 13.07. 19:20 2(1800m) 7(6600m) 7(7500m)
Mo, 13.07. 19:10 3(1800m) 7(6600m) 7(7500m)
Mo, 13.07. 19:00 1(1800m) 7(6900m) 8(8400m)
Mo, 13.07. 18:50 1(1800m) 7(6900m) 8(8400m)
Mo, 13.07. 18:40 1(1800m) 7(6900m) 8(8400m)
Mo, 13.07. 18:30 3(1800m) 7(7200m) 7(8700m)
Mo, 13.07. 18:00 5(1800m) 6(7800m) 7(9000m)
Ortszeit Stationsdruck (hPa) Tendenz (hPa in 3 Std.)
Mo, 13.07. 14:00 928 - 1,1
Mo, 13.07. 8:00 930 0,0
Mo, 13.07. 2:00 931 - 0,6
So, 12.07. 20:00 931 0,0
So, 12.07. 14:00 931 - 0,5
So, 12.07. 8:00 932 + 0,6
So, 12.07. 2:00 931 - 0,4
Sa, 11.07. 20:00 931 + 0,2
Ortszeit Stationsdruck (hPa) Tendenz (hPa in 3 Std.)
Mo, 13.07. 19:30 926 - 0,6
Mo, 13.07. 19:20 926 keine Meldung
Mo, 13.07. 19:10 927 keine Meldung
Mo, 13.07. 19:00 926 - 0,8
Mo, 13.07. 18:50 926 keine Meldung
Mo, 13.07. 18:40 926 keine Meldung
Mo, 13.07. 18:30 926 - 0,7
Mo, 13.07. 18:00 927 - 0,8
Ortszeit Schneehöhe (cm)
Mo, 13.07. 14:00 -
Mo, 13.07. 8:00 -
Mo, 13.07. 2:00 -
So, 12.07. 20:00 -
So, 12.07. 14:00 -
So, 12.07. 8:00 -
So, 12.07. 2:00 -
Sa, 11.07. 20:00 -
Ortszeit Schneehöhe (cm)
Mo, 13.07. 19:30 -
Mo, 13.07. 19:20 -
Mo, 13.07. 19:10 -
Mo, 13.07. 19:00 -
Mo, 13.07. 18:50 -
Mo, 13.07. 18:40 -
Mo, 13.07. 18:30 -
Mo, 13.07. 18:00 -
Link zu dieser Seite / Seite empfehlen

Das Wetter in ...